createdAt,value
2018-05-10T00:00:51.817Z,61.02
2018-05-10T00:03:19.939Z,62.44
2018-05-10T00:05:48.039Z,62.17
2018-05-10T00:18:01.135Z,60.56
2018-05-10T00:20:30.051Z,61.14
2018-05-10T00:22:58.153Z,60.63
2018-05-10T00:25:26.267Z,60.21
2018-05-10T00:27:55.377Z,59.96
2018-05-10T00:30:23.519Z,60.45
2018-05-10T00:32:51.631Z,59.56
2018-05-10T00:35:19.764Z,59.20
2018-05-10T00:37:47.866Z,59.72
2018-05-10T00:40:15.971Z,60.07
2018-05-10T00:42:44.139Z,59.57
2018-05-10T00:45:13.163Z,58.81
2018-05-10T00:47:41.279Z,57.41
2018-05-10T00:50:09.848Z,56.69
2018-05-10T00:52:37.907Z,56.04
2018-05-10T00:55:06.028Z,56.13
2018-05-10T00:57:39.713Z,55.57
2018-05-10T01:00:13.335Z,55.66
2018-05-10T01:02:41.438Z,55.34
2018-05-10T01:05:09.832Z,54.71
2018-05-10T01:07:37.924Z,54.75
2018-05-10T01:10:06.039Z,55.44
2018-05-10T01:12:34.990Z,55.21
2018-05-10T01:15:03.104Z,55.23
2018-05-10T01:17:31.218Z,54.86
2018-05-10T01:19:59.310Z,54.74
2018-05-10T01:22:27.411Z,54.61
2018-05-10T01:24:55.490Z,54.55
2018-05-10T01:27:23.582Z,54.62
2018-05-10T01:29:51.676Z,54.74
2018-05-10T01:32:19.797Z,54.64
2018-05-10T01:35:00.580Z,54.53
2018-05-10T01:37:28.670Z,54.50
2018-05-10T01:39:56.802Z,54.41
2018-05-10T01:42:24.904Z,54.21
2018-05-10T01:44:53.030Z,53.60
2018-05-10T01:47:21.139Z,53.37
2018-05-10T01:49:49.280Z,53.00
2018-05-10T01:52:17.373Z,52.56
2018-05-10T01:54:45.498Z,52.79
2018-05-10T01:57:13.585Z,52.17
2018-05-10T01:59:41.672Z,52.02
2018-05-10T02:02:09.818Z,51.94
2018-05-10T02:04:48.596Z,51.73
2018-05-10T02:07:16.677Z,51.40
2018-05-10T02:09:44.788Z,53.66
2018-05-10T02:12:12.908Z,54.23
2018-05-10T02:14:41.075Z,54.86
2018-05-10T02:17:09.128Z,55.96
2018-05-10T02:19:37.235Z,56.35
2018-05-10T02:22:05.712Z,56.21
2018-05-10T02:24:33.819Z,55.63
2018-05-10T02:27:01.900Z,55.72
2018-05-10T02:29:31.789Z,56.31
2018-05-10T02:31:59.888Z,55.46
2018-05-10T02:34:28.005Z,55.21
2018-05-10T02:37:01.685Z,54.68
2018-05-10T02:39:35.194Z,55.29
2018-05-10T02:42:03.960Z,55.99
2018-05-10T02:44:32.070Z,56.67
2018-05-10T02:47:00.173Z,55.77
2018-05-10T02:49:28.278Z,55.74
2018-05-10T02:51:57.132Z,56.07
2018-05-10T02:54:25.244Z,55.65
2018-05-10T02:56:53.738Z,56.58
2018-05-10T03:12:22.701Z,57.94
2018-05-10T03:14:50.810Z,58.43
2018-05-10T03:17:18.914Z,59.42
2018-05-10T03:19:46.999Z,59.39
2018-05-10T03:22:15.200Z,59.61
2018-05-10T03:24:43.344Z,59.73
2018-05-10T03:27:11.424Z,60.00
2018-05-10T03:29:39.528Z,60.34
2018-05-10T03:32:07.624Z,60.11
2018-05-10T03:34:35.768Z,60.56
2018-05-10T03:37:04.032Z,61.07
2018-05-10T03:39:37.826Z,61.36
2018-05-10T03:42:05.919Z,61.76
2018-05-10T03:44:34.610Z,62.07
2018-05-10T03:47:02.740Z,61.96
2018-05-10T03:49:30.839Z,61.74
2018-05-10T03:51:58.945Z,61.86
2018-05-10T03:54:27.056Z,62.59
2018-05-10T03:56:55.152Z,62.25
2018-05-10T03:59:23.249Z,63.11
2018-05-10T04:01:52.091Z,62.95
2018-05-10T04:04:44.244Z,62.08
2018-05-10T04:07:24.132Z,62.14
2018-05-10T04:10:04.094Z,61.98
2018-05-10T04:12:32.684Z,61.79
2018-05-10T04:15:00.819Z,61.40
2018-05-10T04:17:28.890Z,61.96
2018-05-10T04:19:57.360Z,61.38
2018-05-10T04:22:25.788Z,62.01
2018-05-10T04:24:58.842Z,61.96
2018-05-10T04:27:27.796Z,62.27
2018-05-10T04:29:56.546Z,62.46
2018-05-10T04:32:24.692Z,62.82
2018-05-10T04:34:58.230Z,63.36
2018-05-10T04:37:26.345Z,63.60
2018-05-10T04:39:54.435Z,63.80
2018-05-10T04:42:23.475Z,63.76
2018-05-10T04:44:51.591Z,64.71
2018-05-10T04:47:20.599Z,65.32
2018-05-10T04:49:48.687Z,66.23
2018-05-10T04:52:16.792Z,65.64
2018-05-10T04:54:44.968Z,64.90
2018-05-10T04:57:13.071Z,64.73
2018-05-10T04:59:41.190Z,64.44
2018-05-10T05:02:09.323Z,64.64
2018-05-10T05:04:37.439Z,64.58
2018-05-10T05:07:06.466Z,65.52
2018-05-10T05:09:35.330Z,65.46
2018-05-10T05:12:03.541Z,65.03
2018-05-10T05:14:31.532Z,64.63
2018-05-10T05:16:59.619Z,65.24
2018-05-10T05:32:28.610Z,68.01
2018-05-10T05:34:56.740Z,68.50
2018-05-10T05:37:25.196Z,68.27
2018-05-10T05:39:53.279Z,68.19
2018-05-10T05:42:21.389Z,68.03
2018-05-10T05:44:49.486Z,68.30
2018-05-10T05:47:17.591Z,68.15
2018-05-10T05:49:45.752Z,68.11
2018-05-10T05:52:13.846Z,67.58
2018-05-10T05:54:42.246Z,66.89
2018-05-10T05:57:10.346Z,66.69
2018-05-10T05:59:38.445Z,67.74
2018-05-10T06:02:07.223Z,67.09
2018-05-10T06:04:35.340Z,67.00
2018-05-10T06:07:04.289Z,67.78
2018-05-10T06:09:32.410Z,67.73
2018-05-10T06:12:00.518Z,67.92
2018-05-10T06:14:28.608Z,68.14
2018-05-10T06:16:56.718Z,67.71
2018-05-10T06:19:25.456Z,67.71
2018-05-10T06:21:53.550Z,67.81
2018-05-10T06:24:22.396Z,67.71
2018-05-10T06:26:50.530Z,67.12
2018-05-10T06:29:18.635Z,67.29
2018-05-10T06:31:46.728Z,66.61
2018-05-10T06:34:14.861Z,67.02
2018-05-10T06:36:42.952Z,67.39
2018-05-10T06:39:11.752Z,67.24
2018-05-10T06:41:39.859Z,67.78
2018-05-10T06:44:09.212Z,67.59
2018-05-10T06:46:37.345Z,67.15
2018-05-10T06:49:05.434Z,66.96
2018-05-10T06:51:33.563Z,67.44
2018-05-10T06:54:01.668Z,66.88
2018-05-10T06:56:29.767Z,67.77
2018-05-10T06:58:57.883Z,67.93
2018-05-10T07:01:26.243Z,68.46
2018-05-10T07:03:55.131Z,68.75
2018-05-10T07:06:23.227Z,68.50
2018-05-10T07:08:51.355Z,68.28
2018-05-10T07:11:19.472Z,68.82
2018-05-10T07:13:47.988Z,68.83
2018-05-10T07:16:16.107Z,68.81
2018-05-10T07:18:44.201Z,68.69
2018-05-10T07:21:17.971Z,68.91
2018-05-10T07:23:46.152Z,68.69
2018-05-10T07:26:14.225Z,68.34
2018-05-10T07:28:42.349Z,67.91
2018-05-10T07:31:10.437Z,67.62
2018-05-10T07:33:38.528Z,67.48
2018-05-10T07:36:06.675Z,67.54
2018-05-10T07:38:34.755Z,67.52
2018-05-10T07:41:02.860Z,67.75
2018-05-10T07:43:30.980Z,67.68
2018-05-10T07:45:59.088Z,67.19
2018-05-10T07:48:27.207Z,66.80
2018-05-10T07:50:55.307Z,67.21
2018-05-10T07:53:23.424Z,67.86
2018-05-10T07:55:51.553Z,67.41
2018-05-10T07:58:25.205Z,67.34
2018-05-10T08:00:56.029Z,67.37
2018-05-10T08:03:24.163Z,67.56
2018-05-10T08:05:52.280Z,67.55
2018-05-10T08:08:20.366Z,67.83
2018-05-10T08:10:48.705Z,68.39
2018-05-10T08:13:16.786Z,68.12
2018-05-10T08:15:44.940Z,67.74
2018-05-10T08:18:13.070Z,67.36
2018-05-10T08:20:41.167Z,67.41
2018-05-10T08:23:09.275Z,66.64
2018-05-10T08:25:37.370Z,66.17
2018-05-10T08:28:05.473Z,65.46
2018-05-10T08:30:33.584Z,65.11
2018-05-10T08:33:01.684Z,65.07
2018-05-10T08:35:29.774Z,65.39
2018-05-10T08:37:57.907Z,65.77
2018-05-10T08:40:25.997Z,65.83
2018-05-10T08:42:54.099Z,66.10
2018-05-10T08:45:22.199Z,66.06
2018-05-10T08:47:50.364Z,66.85
2018-05-10T08:50:18.467Z,67.31
2018-05-10T08:52:46.555Z,67.17
2018-05-10T08:55:14.669Z,67.63
2018-05-10T09:07:27.872Z,63.56
2018-05-10T09:09:55.889Z,62.03
2018-05-10T09:12:24.389Z,60.99
2018-05-10T09:14:52.541Z,61.55
2018-05-10T09:17:20.646Z,59.74
2018-05-10T09:32:48.767Z,55.36
2018-05-10T09:35:16.851Z,55.62
2018-05-10T09:37:44.969Z,56.29
2018-05-10T09:40:13.140Z,55.58
2018-05-10T09:42:41.240Z,55.40
2018-05-10T09:45:09.327Z,55.46
2018-05-10T09:47:37.452Z,55.37
2018-05-10T09:50:05.545Z,55.70
2018-05-10T09:52:33.722Z,56.23
2018-05-10T09:55:01.747Z,55.63
2018-05-10T09:57:29.858Z,54.93
2018-05-10T09:59:57.976Z,54.43
2018-05-10T10:02:26.396Z,54.35
2018-05-10T10:04:54.487Z,53.76
2018-05-10T10:07:23.593Z,53.84
2018-05-10T10:09:51.688Z,53.33
2018-05-10T10:12:20.628Z,54.39
2018-05-10T10:14:48.744Z,53.49
2018-05-10T10:17:16.827Z,53.86
2018-05-10T10:19:44.939Z,54.36
2018-05-10T10:22:13.082Z,53.00
2018-05-10T10:24:41.184Z,53.38
2018-05-10T10:27:09.287Z,52.37
2018-05-10T10:29:37.411Z,52.30
2018-05-10T10:32:05.862Z,51.87
2018-05-10T10:34:33.978Z,52.53
2018-05-10T10:37:02.028Z,51.94
2018-05-10T10:39:30.108Z,51.56
2018-05-10T10:41:58.188Z,50.84
2018-05-10T10:44:27.187Z,51.37
2018-05-10T10:46:55.319Z,50.47
2018-05-10T10:49:23.408Z,50.55
2018-05-10T10:51:51.580Z,50.79
2018-05-10T10:54:19.692Z,50.84
2018-05-10T10:56:47.778Z,52.08
2018-05-10T10:59:21.341Z,52.29
2018-05-10T11:01:49.553Z,52.40
2018-05-10T11:04:17.621Z,52.36
2018-05-10T11:06:46.380Z,51.92
2018-05-10T11:09:14.659Z,51.29
2018-05-10T11:11:43.521Z,51.68
2018-05-10T11:14:11.999Z,51.42
2018-05-10T11:16:40.246Z,51.30
2018-05-10T11:19:08.321Z,51.22
2018-05-10T11:21:36.422Z,51.93
2018-05-10T11:37:04.548Z,51.56
2018-05-10T11:39:38.240Z,51.75
2018-05-10T11:42:06.354Z,51.35
2018-05-10T11:44:35.490Z,50.95
2018-05-10T11:47:03.566Z,49.08
2018-05-10T11:49:31.681Z,50.23
2018-05-10T11:51:59.807Z,51.25
2018-05-10T11:54:27.919Z,51.29
2018-05-10T11:56:56.588Z,51.03
2018-05-10T11:59:24.979Z,51.91
2018-05-10T12:01:53.569Z,52.31
2018-05-10T12:04:21.713Z,51.70
2018-05-10T12:06:49.791Z,51.51
2018-05-10T12:09:17.927Z,51.60
2018-05-10T12:11:46.042Z,51.70
2018-05-10T12:14:14.309Z,51.50
2018-05-10T12:16:48.854Z,51.56
2018-05-10T12:19:17.003Z,51.32
2018-05-10T12:21:46.001Z,50.15
2018-05-10T12:24:14.272Z,51.03
2018-05-10T12:39:42.393Z,48.44
2018-05-10T12:42:10.474Z,49.00
2018-05-10T12:44:38.566Z,49.22
2018-05-10T12:47:06.701Z,49.57
2018-05-10T12:49:34.794Z,49.25
2018-05-10T12:52:02.870Z,49.49
2018-05-10T12:54:30.981Z,49.38
2018-05-10T12:56:59.089Z,48.65
2018-05-10T12:59:27.196Z,48.23
2018-05-10T13:01:55.360Z,47.32
2018-05-10T13:04:23.710Z,47.59
2018-05-10T13:06:51.845Z,47.69
2018-05-10T13:09:19.918Z,48.23
2018-05-10T13:11:48.011Z,48.74
2018-05-10T13:14:16.130Z,49.38
2018-05-10T13:16:45.000Z,49.92
2018-05-10T13:19:13.078Z,50.09
2018-05-10T13:21:41.921Z,50.14
2018-05-10T13:24:11.178Z,49.74
2018-05-10T13:26:39.260Z,49.75
2018-05-10T13:29:08.232Z,50.22
2018-05-10T13:44:36.347Z,51.44
2018-05-10T13:47:04.582Z,50.89
2018-05-10T13:49:33.267Z,51.92
2018-05-10T13:52:02.376Z,51.69
2018-05-10T13:54:30.503Z,51.93
2018-05-10T13:56:59.326Z,52.12
2018-05-10T13:59:27.421Z,52.29
2018-05-10T14:01:55.544Z,53.77
2018-05-10T14:04:24.848Z,52.92
2018-05-10T14:06:52.978Z,51.75
2018-05-10T14:09:21.056Z,52.77
2018-05-10T14:11:49.170Z,54.02
2018-05-10T14:14:17.299Z,53.00
2018-05-10T14:16:45.400Z,53.16
2018-05-10T14:19:13.489Z,53.13
2018-05-10T14:21:41.603Z,53.94
2018-05-10T14:24:09.742Z,53.93
2018-05-10T14:26:37.828Z,54.51
2018-05-10T14:29:05.940Z,54.99
2018-05-10T14:31:39.572Z,55.72
2018-05-10T14:34:07.720Z,55.79
2018-05-10T14:36:36.506Z,56.58
2018-05-10T14:39:06.127Z,56.29
2018-05-10T14:41:34.226Z,56.82
2018-05-10T14:44:02.367Z,56.98
2018-05-10T14:46:30.468Z,57.30
2018-05-10T14:48:58.569Z,57.02
2018-05-10T14:51:26.716Z,57.83
2018-05-10T14:53:54.815Z,58.02
2018-05-10T14:56:22.924Z,58.65
2018-05-10T14:58:51.072Z,58.56
2018-05-10T15:01:19.903Z,58.54
2018-05-10T15:03:48.000Z,59.25
2018-05-10T15:06:16.086Z,59.98
2018-05-10T15:08:44.237Z,59.60
2018-05-10T15:11:13.175Z,59.37
2018-05-10T15:13:46.865Z,59.75
2018-05-10T15:16:15.013Z,59.02
2018-05-10T15:18:43.106Z,59.48
2018-05-10T15:21:11.194Z,60.64
2018-05-10T15:23:39.354Z,60.31
2018-05-10T15:26:07.404Z,58.77
2018-05-10T15:28:35.494Z,59.40
2018-05-10T15:31:03.646Z,59.70
2018-05-10T15:33:31.757Z,60.25
2018-05-10T15:35:59.860Z,59.43
2018-05-10T15:38:28.932Z,59.23
2018-05-10T15:40:57.023Z,59.69
2018-05-10T15:43:25.137Z,59.50
2018-05-10T15:45:53.233Z,58.82
2018-05-10T15:48:21.328Z,58.94
2018-05-10T15:50:49.893Z,58.96
2018-05-10T15:53:23.611Z,58.47
2018-05-10T15:55:53.458Z,58.77
2018-05-10T15:58:21.538Z,58.24
2018-05-10T16:00:49.717Z,57.75
2018-05-10T16:03:17.817Z,57.85
2018-05-10T16:05:45.927Z,57.71
2018-05-10T16:08:14.023Z,57.45
2018-05-10T16:10:42.115Z,57.29
2018-05-10T16:13:10.241Z,57.12
2018-05-10T16:15:38.387Z,56.84
2018-05-10T16:18:07.392Z,56.55
2018-05-10T16:20:35.878Z,56.12
2018-05-10T16:23:04.313Z,56.87
2018-05-10T16:25:32.409Z,56.12
2018-05-10T16:28:01.363Z,55.01
2018-05-10T16:30:35.006Z,54.47
2018-05-10T16:33:03.107Z,53.85
2018-05-10T16:35:31.207Z,54.17
2018-05-10T16:38:00.039Z,54.18
2018-05-10T16:40:28.157Z,53.77
2018-05-10T16:55:56.282Z,53.49
2018-05-10T16:58:24.375Z,53.22
2018-05-10T17:00:52.903Z,51.53
2018-05-10T17:03:21.031Z,50.70
2018-05-10T17:05:49.749Z,51.06
2018-05-10T17:08:17.964Z,51.07
2018-05-10T17:10:46.048Z,50.85
2018-05-10T17:13:14.780Z,51.45
2018-05-10T17:15:42.895Z,50.78
2018-05-10T17:18:10.972Z,50.71
2018-05-10T17:20:39.088Z,51.31
2018-05-10T17:23:07.186Z,51.02
2018-05-10T17:25:35.368Z,50.25
2018-05-10T17:28:03.474Z,50.80
2018-05-10T17:30:31.580Z,50.55
2018-05-10T17:33:00.461Z,49.58
2018-05-10T17:35:28.532Z,49.84
2018-05-10T17:37:56.807Z,50.03
2018-05-10T17:40:25.698Z,49.91
2018-05-10T17:42:53.807Z,50.07
2018-05-10T17:45:21.911Z,49.84
2018-05-10T17:47:50.607Z,50.76
2018-05-10T17:50:18.710Z,50.99
2018-05-10T17:52:46.828Z,50.86
2018-05-10T17:55:14.919Z,50.48
2018-05-10T17:57:43.012Z,50.50
2018-05-10T18:00:11.119Z,51.02
2018-05-10T18:02:39.228Z,50.98
2018-05-10T18:05:07.324Z,50.82
2018-05-10T18:07:35.423Z,50.59
2018-05-10T18:10:03.541Z,50.43
2018-05-10T18:12:32.464Z,50.69
2018-05-10T18:15:00.583Z,51.18
2018-05-10T18:17:28.697Z,50.97
2018-05-10T18:19:56.779Z,51.28
2018-05-10T18:22:25.958Z,50.48
2018-05-10T18:24:54.043Z,50.77
2018-05-10T18:27:22.150Z,50.31
2018-05-10T18:29:50.271Z,50.14
2018-05-10T18:32:18.389Z,50.05
2018-05-10T18:47:51.506Z,49.90
2018-05-10T18:50:19.579Z,50.19
2018-05-10T18:52:48.017Z,49.81
2018-05-10T18:55:21.062Z,49.31
2018-05-10T18:57:49.233Z,50.50
2018-05-10T19:00:17.328Z,50.62
2018-05-10T19:02:46.146Z,51.50
2018-05-10T19:05:14.308Z,51.42
2018-05-10T19:07:42.409Z,51.63
2018-05-10T19:10:10.519Z,51.24
2018-05-10T19:12:38.666Z,51.12
2018-05-10T19:15:06.774Z,51.26
2018-05-10T19:17:35.256Z,51.29
2018-05-10T19:20:03.388Z,50.89
2018-05-10T19:22:31.484Z,51.10
2018-05-10T19:24:59.578Z,50.08
2018-05-10T19:27:33.343Z,50.39
2018-05-10T19:30:07.031Z,50.91
2018-05-10T19:32:35.221Z,50.25
2018-05-10T19:35:03.312Z,50.31
2018-05-10T19:37:31.477Z,50.58
2018-05-10T19:39:59.593Z,50.99
2018-05-10T19:42:27.676Z,50.72
2018-05-10T19:44:55.783Z,50.91
2018-05-10T19:47:23.867Z,51.42
2018-05-10T19:49:52.431Z,51.01
2018-05-10T19:52:20.573Z,51.03
2018-05-10T19:54:48.974Z,51.08
2018-05-10T19:57:17.090Z,51.78
2018-05-10T19:59:45.204Z,52.35
2018-05-10T20:15:13.313Z,53.50
2018-05-10T20:17:41.407Z,53.44
2018-05-10T20:20:09.527Z,54.24
2018-05-10T20:22:37.635Z,53.88
2018-05-10T20:25:05.809Z,53.98
2018-05-10T20:27:33.910Z,54.38
2018-05-10T20:30:02.023Z,54.33
2018-05-10T20:32:30.218Z,56.10
2018-05-10T20:34:58.215Z,56.86
2018-05-10T20:37:31.950Z,56.07
2018-05-10T20:40:00.080Z,55.97
2018-05-10T20:42:28.182Z,56.24
2018-05-10T20:44:56.311Z,56.72
2018-05-10T20:47:24.404Z,56.47
2018-05-10T20:49:52.483Z,56.87
2018-05-10T20:52:20.795Z,56.61
2018-05-10T20:54:48.907Z,57.13
2018-05-10T20:57:17.949Z,57.24
2018-05-10T20:59:46.093Z,58.04
2018-05-10T21:02:14.231Z,57.86
2018-05-10T21:04:42.331Z,58.06
2018-05-10T21:07:10.996Z,58.34
2018-05-10T21:09:39.967Z,58.09
2018-05-10T21:12:08.053Z,57.94
2018-05-10T21:14:36.154Z,58.33
2018-05-10T21:17:04.235Z,58.39
2018-05-10T21:19:32.387Z,57.98
2018-05-10T21:22:00.495Z,57.55
2018-05-10T21:24:29.141Z,57.65
2018-05-10T21:26:58.057Z,58.08
2018-05-10T21:29:26.212Z,57.97
2018-05-10T21:31:54.584Z,58.10
2018-05-10T21:34:22.991Z,57.65
2018-05-10T21:36:51.113Z,57.52
2018-05-10T21:39:19.217Z,57.63
2018-05-10T21:41:47.335Z,58.26
2018-05-10T21:44:15.425Z,58.58
2018-05-10T21:46:43.550Z,58.94
2018-05-10T21:49:23.439Z,59.20
2018-05-10T21:51:52.356Z,59.27
2018-05-10T21:54:21.340Z,59.12
2018-05-10T21:56:49.431Z,58.74
2018-05-10T21:59:23.123Z,59.74
2018-05-10T22:01:51.239Z,58.91
2018-05-10T22:04:19.323Z,58.66
2018-05-10T22:06:47.491Z,58.65
2018-05-10T22:09:15.821Z,59.54
2018-05-10T22:11:43.915Z,59.89
2018-05-10T22:14:12.015Z,59.39
2018-05-10T22:16:46.428Z,59.61
2018-05-10T22:19:14.555Z,59.81
2018-05-10T22:21:42.734Z,60.03
2018-05-10T22:24:10.839Z,60.99
2018-05-10T22:26:38.995Z,59.98
2018-05-10T22:29:07.116Z,59.42
2018-05-10T22:31:35.229Z,59.21
2018-05-10T22:34:03.307Z,58.99
2018-05-10T22:36:31.395Z,58.46
2018-05-10T22:38:59.975Z,58.36
2018-05-10T22:41:28.062Z,58.95
2018-05-10T22:43:56.171Z,59.24
2018-05-10T22:46:24.267Z,59.67
2018-05-10T22:48:52.362Z,59.40
2018-05-10T22:51:21.383Z,59.18
2018-05-10T22:53:49.480Z,58.86
2018-05-10T22:56:24.201Z,58.69
2018-05-10T22:58:57.839Z,58.38
2018-05-10T23:01:25.967Z,58.39
2018-05-10T23:16:54.084Z,58.64
2018-05-10T23:19:22.191Z,59.01
2018-05-10T23:21:50.278Z,59.02
2018-05-10T23:24:18.393Z,58.92
2018-05-10T23:26:46.543Z,58.99
2018-05-10T23:29:15.185Z,59.08
2018-05-10T23:31:48.779Z,59.28
2018-05-10T23:34:16.867Z,59.05
2018-05-10T23:36:44.994Z,59.36
2018-05-10T23:39:13.139Z,58.86
2018-05-10T23:41:41.207Z,59.39
2018-05-10T23:44:09.292Z,59.06
2018-05-10T23:46:37.512Z,59.62
2018-05-10T23:49:05.627Z,59.81
2018-05-10T23:51:33.779Z,59.85
2018-05-10T23:54:01.875Z,59.41
2018-05-10T23:56:30.760Z,59.37
2018-05-10T23:58:58.856Z,59.76
